createdAt,value
2023-03-31T00:01:41.832Z,99924.19
2023-03-31T00:04:13.663Z,99926.16
2023-03-31T00:06:46.041Z,99925.81
2023-03-31T00:09:17.515Z,99926.63
2023-03-31T00:11:49.291Z,99922.69
2023-03-31T00:14:20.782Z,99929.75
2023-03-31T00:16:52.647Z,99916.31
2023-03-31T00:19:24.236Z,99922.09
2023-03-31T00:21:55.715Z,99914.94
2023-03-31T00:24:27.157Z,99910.41
2023-03-31T00:26:58.622Z,99908.09
2023-03-31T00:29:30.097Z,99902.53
2023-03-31T00:32:01.603Z,99760.63
2023-03-31T00:34:33.093Z,99900.91
2023-03-31T00:37:04.936Z,99908.19
2023-03-31T00:39:36.411Z,99899.03
2023-03-31T00:42:07.905Z,99895.34
2023-03-31T00:44:39.398Z,99896.94
2023-03-31T00:47:11.178Z,99905.41
2023-03-31T00:49:42.636Z,99896.63
2023-03-31T00:52:14.452Z,99894.78
2023-03-31T00:54:45.956Z,99884.38
2023-03-31T00:57:17.820Z,99887.97
2023-03-31T00:59:49.336Z,99884.63
2023-03-31T01:02:21.307Z,99880.84
2023-03-31T01:04:52.830Z,99875.63
2023-03-31T01:07:24.605Z,99878.66
2023-03-31T01:09:56.057Z,99871.97
2023-03-31T01:12:27.867Z,99865.69
2023-03-31T01:14:59.319Z,99864.06
2023-03-31T01:17:31.274Z,99861.66
2023-03-31T01:20:02.838Z,99852.53
2023-03-31T01:22:34.670Z,99854.59
2023-03-31T01:25:06.114Z,99853.00
2023-03-31T01:27:37.582Z,99848.59
2023-03-31T01:30:09.048Z,99845.25
2023-03-31T01:32:40.754Z,99854.28
2023-03-31T01:35:12.216Z,99845.25
2023-03-31T01:37:44.068Z,99846.63
2023-03-31T01:40:15.514Z,99843.72
2023-03-31T01:42:47.316Z,99837.03
2023-03-31T01:45:18.774Z,99827.44
2023-03-31T01:47:50.427Z,99829.16
2023-03-31T01:50:21.944Z,99830.75
2023-03-31T01:52:53.712Z,99832.16
2023-03-31T01:55:25.155Z,99826.94
2023-03-31T01:57:56.620Z,99821.41
2023-03-31T02:00:28.066Z,99819.88
2023-03-31T02:02:59.691Z,99818.25
2023-03-31T02:05:31.174Z,99816.97
2023-03-31T02:08:03.001Z,99813.28
2023-03-31T02:10:34.475Z,99805.06
2023-03-31T02:13:06.141Z,99800.88
2023-03-31T02:15:37.593Z,99804.56
2023-03-31T02:18:09.061Z,99802.47
2023-03-31T02:20:40.523Z,99803.53
2023-03-31T02:23:12.328Z,99800.88
2023-03-31T02:25:43.794Z,99788.59
2023-03-31T02:28:15.611Z,99790.22
2023-03-31T02:30:47.062Z,99788.59
2023-03-31T02:33:18.510Z,99789.75
2023-03-31T02:35:49.998Z,99778.53
2023-03-31T02:38:21.728Z,99781.53
2023-03-31T02:40:53.196Z,99772.97
2023-03-31T02:43:24.997Z,99779.09
2023-03-31T02:45:56.493Z,99769.50
2023-03-31T02:48:28.333Z,99773.78
2023-03-31T02:50:59.773Z,99774.91
2023-03-31T02:53:31.568Z,99766.03
2023-03-31T02:56:03.095Z,99762.31
2023-03-31T02:58:34.999Z,99759.41
2023-03-31T03:01:06.522Z,99752.47
2023-03-31T03:03:38.276Z,99755.94
2023-03-31T03:06:09.940Z,99749.81
2023-03-31T03:08:41.864Z,99755.38
2023-03-31T03:11:13.309Z,99756.19
2023-03-31T03:13:45.035Z,99748.19
2023-03-31T03:16:16.624Z,99748.44
2023-03-31T03:18:48.380Z,99749.25
2023-03-31T03:21:19.846Z,99746.59
2023-03-31T03:23:51.500Z,99740.44
2023-03-31T03:26:22.956Z,99746.59
2023-03-31T03:28:54.444Z,99741.03
2023-03-31T03:31:26.292Z,99730.84
2023-03-31T03:33:58.439Z,99727.38
2023-03-31T03:36:29.897Z,99725.84
2023-03-31T03:39:01.577Z,99724.72
2023-03-31T03:41:33.074Z,99721.56
2023-03-31T03:44:04.827Z,99713.91
2023-03-31T03:46:36.331Z,99713.84
2023-03-31T03:49:07.929Z,99704.88
2023-03-31T03:51:39.424Z,99701.66
2023-03-31T03:54:11.173Z,99696.09
2023-03-31T03:56:42.677Z,99691.81
2023-03-31T03:59:14.632Z,99699.22
2023-03-31T04:01:46.180Z,99704.56
2023-03-31T04:04:18.022Z,99696.91
2023-03-31T04:06:49.475Z,99693.59
2023-03-31T04:09:21.134Z,99697.63
2023-03-31T04:11:52.642Z,99695.91
2023-03-31T04:14:24.309Z,99699.94
2023-03-31T04:16:55.754Z,99695.34
2023-03-31T04:19:27.549Z,99691.88
2023-03-31T04:21:59.239Z,99693.66
2023-03-31T04:24:30.828Z,99691.00
2023-03-31T04:27:02.351Z,99683.44
2023-03-31T04:29:34.217Z,99678.84
2023-03-31T04:32:05.763Z,99678.75
2023-03-31T04:34:37.684Z,99674.47
2023-03-31T04:37:09.175Z,99669.06
2023-03-31T04:39:41.057Z,99665.84
2023-03-31T04:42:12.516Z,99668.25
2023-03-31T04:44:44.246Z,99658.19
2023-03-31T04:47:15.726Z,99654.97
2023-03-31T04:49:47.617Z,99655.19
2023-03-31T04:52:19.106Z,99658.34
2023-03-31T04:54:50.561Z,99651.97
2023-03-31T04:57:22.153Z,99640.53
2023-03-31T04:59:53.660Z,99632.16
2023-03-31T05:02:25.752Z,99633.19
2023-03-31T05:04:57.300Z,99635.94
2023-03-31T05:07:28.954Z,99620.22
2023-03-31T05:10:00.492Z,99620.78
2023-03-31T05:12:32.286Z,99614.56
2023-03-31T05:15:03.819Z,99608.19
2023-03-31T05:17:37.771Z,99612.47
2023-03-31T05:20:09.264Z,99618.03
2023-03-31T05:22:42.597Z,99622.63
2023-03-31T05:25:15.430Z,99612.00
2023-03-31T05:27:47.068Z,99600.31
2023-03-31T05:30:18.507Z,99603.03
2023-03-31T05:32:50.304Z,99598.41
2023-03-31T05:35:21.823Z,99591.31
2023-03-31T05:37:53.653Z,99582.09
2023-03-31T05:40:25.114Z,99591.44
2023-03-31T05:42:56.621Z,99587.09
2023-03-31T05:45:28.104Z,99589.75
2023-03-31T05:47:59.669Z,99589.81
2023-03-31T05:50:31.144Z,99581.34
2023-03-31T05:53:02.612Z,99576.09
2023-03-31T05:55:34.082Z,99574.50
2023-03-31T05:58:05.840Z,99566.13
2023-03-31T06:00:37.286Z,99581.91
2023-03-31T06:03:09.246Z,99578.88
2023-03-31T06:05:40.754Z,99563.75
2023-03-31T06:08:12.514Z,99558.78
2023-03-31T06:10:43.988Z,99558.38
2023-03-31T06:13:15.943Z,99552.66
2023-03-31T06:15:47.400Z,99549.19
2023-03-31T06:18:21.664Z,99549.63
2023-03-31T06:20:53.114Z,99544.78
2023-03-31T06:23:24.922Z,99542.69
2023-03-31T06:25:56.405Z,99539.75
2023-03-31T06:28:28.070Z,99530.00
2023-03-31T06:30:59.500Z,99532.97
2023-03-31T06:33:31.156Z,99522.63
2023-03-31T06:36:02.640Z,99530.59
2023-03-31T06:38:34.372Z,99523.84
2023-03-31T06:41:05.962Z,99517.72
2023-03-31T06:43:37.733Z,99512.91
2023-03-31T06:46:11.885Z,99519.47
2023-03-31T06:48:43.840Z,99525.34
2023-03-31T06:51:15.296Z,99523.41
2023-03-31T06:53:47.077Z,99521.91
2023-03-31T06:56:18.535Z,99522.91
2023-03-31T06:58:50.215Z,99516.09
2023-03-31T07:01:21.738Z,99514.00
2023-03-31T07:03:53.638Z,99508.13
2023-03-31T07:06:25.093Z,99506.13
2023-03-31T07:08:56.565Z,99503.31
2023-03-31T07:11:28.004Z,99504.47
2023-03-31T07:13:59.483Z,99505.97
2023-03-31T07:16:31.017Z,99500.38
2023-03-31T07:19:02.897Z,99488.63
2023-03-31T07:21:34.363Z,99494.31
2023-03-31T07:24:06.029Z,99484.41
2023-03-31T07:26:37.518Z,99479.88
2023-03-31T07:29:09.369Z,99482.81
2023-03-31T07:31:40.866Z,99489.22
2023-03-31T07:34:12.744Z,99477.63
2023-03-31T07:36:44.299Z,99484.38
2023-03-31T07:39:16.094Z,99475.03
2023-03-31T07:41:47.588Z,99473.38
2023-03-31T07:44:19.334Z,99473.34
2023-03-31T07:46:50.891Z,99452.13
2023-03-31T07:49:22.374Z,99463.38
2023-03-31T07:51:53.839Z,99458.22
2023-03-31T07:54:25.538Z,99453.19
2023-03-31T07:56:57.071Z,99445.44
2023-03-31T07:59:28.893Z,99452.69
2023-03-31T08:02:00.412Z,99444.94
2023-03-31T08:04:32.061Z,99445.44
2023-03-31T08:07:03.571Z,99440.34
2023-03-31T08:09:35.378Z,99437.25
2023-03-31T08:12:06.831Z,99431.19
2023-03-31T08:14:41.605Z,99437.69
2023-03-31T08:17:13.359Z,99430.38
2023-03-31T08:19:45.240Z,99435.97
2023-03-31T08:22:16.740Z,99429.44
2023-03-31T08:24:48.230Z,99424.19
2023-03-31T08:27:19.694Z,99433.00
2023-03-31T08:29:51.252Z,99425.00
2023-03-31T08:32:22.791Z,99414.97
2023-03-31T08:34:54.407Z,99407.34
2023-03-31T08:37:25.887Z,99413.66
2023-03-31T08:39:57.375Z,99402.16
2023-03-31T08:42:28.848Z,99394.31
2023-03-31T08:45:00.325Z,99386.75
2023-03-31T08:47:31.811Z,99392.81
2023-03-31T08:50:03.453Z,99388.59
2023-03-31T08:52:34.901Z,99384.03
2023-03-31T08:55:06.380Z,99388.28
2023-03-31T08:57:37.841Z,99384.38
2023-03-31T09:00:09.604Z,99387.22
2023-03-31T09:02:41.249Z,99385.59
2023-03-31T09:05:12.980Z,99377.41
2023-03-31T09:07:44.438Z,99374.34
2023-03-31T09:10:16.031Z,99362.72
2023-03-31T09:12:47.483Z,99351.25
2023-03-31T09:15:19.091Z,99359.84
2023-03-31T09:17:50.614Z,99359.34
2023-03-31T09:20:22.312Z,99354.91
2023-03-31T09:22:53.796Z,99360.94
2023-03-31T09:25:25.387Z,99348.88
2023-03-31T09:27:56.894Z,99353.09
2023-03-31T09:30:28.387Z,99337.16
2023-03-31T09:32:59.893Z,99340.88
2023-03-31T09:35:31.762Z,99331.31
2023-03-31T09:38:03.243Z,99336.56
2023-03-31T09:40:34.969Z,99331.94
2023-03-31T09:43:06.484Z,99329.19
2023-03-31T09:45:38.347Z,99316.50
2023-03-31T09:48:09.932Z,99304.09
2023-03-31T09:50:41.728Z,99306.09
2023-03-31T09:53:13.368Z,99304.00
2023-03-31T09:55:44.878Z,99295.63
2023-03-31T09:58:18.199Z,99297.00
2023-03-31T10:00:49.663Z,99290.28
2023-03-31T10:03:21.500Z,99283.22
2023-03-31T10:05:52.981Z,99286.41
2023-03-31T10:08:24.856Z,99278.25
2023-03-31T10:10:56.351Z,99279.94
2023-03-31T10:13:28.213Z,99274.13
2023-03-31T10:15:59.727Z,99269.22
2023-03-31T10:18:31.391Z,99258.63
2023-03-31T10:21:03.001Z,99255.75
2023-03-31T10:23:34.836Z,99247.19
2023-03-31T10:26:06.319Z,99250.63
2023-03-31T10:28:38.122Z,99244.94
2023-03-31T10:31:09.924Z,99249.44
2023-03-31T10:33:41.925Z,99241.81
2023-03-31T10:36:13.559Z,99239.56
2023-03-31T10:38:45.292Z,99238.25
2023-03-31T10:41:16.861Z,99240.56
2023-03-31T10:43:48.721Z,99234.53
2023-03-31T10:46:20.222Z,99251.66
2023-03-31T10:48:52.001Z,99244.00
2023-03-31T10:51:23.485Z,99246.28
2023-03-31T10:53:54.983Z,99237.28
2023-03-31T10:56:26.478Z,99235.72
2023-03-31T10:59:05.138Z,99227.03
2023-03-31T11:01:37.636Z,99220.78
2023-03-31T11:04:09.546Z,99222.31
2023-03-31T11:06:41.056Z,99214.25
2023-03-31T11:09:12.551Z,99213.34
2023-03-31T11:11:44.072Z,99207.25
2023-03-31T11:14:15.546Z,99199.41
2023-03-31T11:16:47.029Z,99200.34
2023-03-31T11:19:18.866Z,99194.97
2023-03-31T11:21:50.429Z,99188.91
2023-03-31T11:24:21.951Z,99181.69
2023-03-31T11:26:53.431Z,99177.22
2023-03-31T11:29:24.936Z,99173.03
2023-03-31T11:31:56.470Z,99149.78
2023-03-31T11:34:28.198Z,98764.19
2023-03-31T11:36:59.682Z,99145.25
2023-03-31T11:39:31.509Z,99149.28
2023-03-31T11:42:02.971Z,99138.44
2023-03-31T11:44:34.785Z,99138.03
2023-03-31T11:47:06.256Z,99137.66
2023-03-31T11:49:37.747Z,99127.50
2023-03-31T11:52:09.212Z,99121.13
2023-03-31T11:54:40.700Z,99120.06
2023-03-31T11:57:12.219Z,99118.16
2023-03-31T11:59:44.096Z,99119.47
2023-03-31T12:02:15.552Z,99111.84
2023-03-31T12:04:47.038Z,99111.41
2023-03-31T12:07:18.501Z,99113.78
2023-03-31T12:09:50.331Z,99101.81
2023-03-31T12:12:21.806Z,99103.09
2023-03-31T12:14:53.296Z,99101.63
2023-03-31T12:17:24.825Z,99094.19
2023-03-31T12:19:56.350Z,98908.63
2023-03-31T12:22:27.859Z,99085.91
2023-03-31T12:24:59.342Z,99088.81
2023-03-31T12:27:30.840Z,99092.94
2023-03-31T12:30:02.743Z,99118.03
2023-03-31T12:32:34.265Z,99098.31
2023-03-31T12:35:05.985Z,99093.75
2023-03-31T12:37:37.445Z,99098.53
2023-03-31T12:40:09.311Z,99088.34
2023-03-31T12:42:40.781Z,99086.22
2023-03-31T12:45:12.610Z,99084.06
2023-03-31T12:47:44.096Z,99075.53
2023-03-31T12:50:15.773Z,99073.16
2023-03-31T12:52:47.239Z,99076.59
2023-03-31T12:55:19.028Z,99079.31
2023-03-31T12:57:50.506Z,99071.56
2023-03-31T13:00:22.352Z,99063.31
2023-03-31T13:02:53.935Z,99061.44
2023-03-31T13:05:25.829Z,99057.44
2023-03-31T13:07:57.314Z,99047.81
2023-03-31T13:10:29.141Z,99053.66
2023-03-31T13:13:00.682Z,99050.72
2023-03-31T13:15:32.580Z,99048.59
2023-03-31T13:18:04.135Z,99052.59
2023-03-31T13:20:36.214Z,99042.88
2023-03-31T13:23:07.694Z,99043.63
2023-03-31T13:25:39.388Z,99058.22
2023-03-31T13:28:10.849Z,99053.38
2023-03-31T13:30:42.490Z,99048.88
2023-03-31T13:33:14.987Z,99057.16
2023-03-31T13:35:47.826Z,99051.81
2023-03-31T13:38:19.309Z,99048.38
2023-03-31T13:40:51.052Z,99045.69
2023-03-31T13:43:22.515Z,99048.66
2023-03-31T13:45:54.127Z,99037.00
2023-03-31T13:48:25.641Z,99042.81
2023-03-31T13:50:57.126Z,99044.22
2023-03-31T13:53:28.602Z,99039.69
2023-03-31T13:56:00.126Z,99041.84
2023-03-31T13:58:34.955Z,99033.81
2023-03-31T14:01:07.269Z,99037.81
2023-03-31T14:03:38.856Z,99038.09
2023-03-31T14:06:10.838Z,99038.38
2023-03-31T14:08:42.408Z,99036.47
2023-03-31T14:11:14.239Z,99043.44
2023-03-31T14:13:45.694Z,99043.34
2023-03-31T14:16:17.510Z,99038.53
2023-03-31T14:18:49.163Z,99037.81
2023-03-31T14:21:21.127Z,99028.38
2023-03-31T14:23:52.630Z,99032.66
2023-03-31T14:26:24.558Z,99038.00
2023-03-31T14:28:56.037Z,99032.59
2023-03-31T14:31:27.743Z,99035.00
2023-03-31T14:33:59.234Z,99032.63
2023-03-31T14:36:31.127Z,99031.97
2023-03-31T14:39:02.633Z,99033.34
2023-03-31T14:41:34.318Z,99025.66
2023-03-31T14:44:05.798Z,99029.34
2023-03-31T14:46:37.620Z,99025.41
2023-03-31T14:49:09.208Z,99017.19
2023-03-31T14:51:40.806Z,99026.19
2023-03-31T14:54:12.260Z,99024.34
2023-03-31T14:56:44.124Z,99018.53
2023-03-31T14:59:15.629Z,99019.53
2023-03-31T15:01:47.433Z,99013.44
2023-03-31T15:04:20.250Z,99010.75
2023-03-31T15:06:52.198Z,99006.53
2023-03-31T15:09:23.686Z,99010.22
2023-03-31T15:11:55.181Z,99014.53
2023-03-31T15:14:26.669Z,99005.75
2023-03-31T15:16:58.228Z,99018.03
2023-03-31T15:19:29.954Z,99012.38
2023-03-31T15:22:01.476Z,99016.41
2023-03-31T15:24:32.955Z,99020.41
2023-03-31T15:27:04.638Z,99016.75
2023-03-31T15:29:36.132Z,99012.50
2023-03-31T15:32:08.260Z,99018.38
2023-03-31T15:34:39.840Z,99011.69
2023-03-31T15:37:11.451Z,99018.88
2023-03-31T15:39:42.908Z,99007.69
2023-03-31T15:42:14.755Z,99016.78
2023-03-31T15:44:46.330Z,99008.25
2023-03-31T15:47:17.949Z,99005.84
2023-03-31T15:49:49.438Z,99000.25
2023-03-31T15:52:21.042Z,99005.03
2023-03-31T15:54:52.558Z,98997.31
2023-03-31T15:57:24.187Z,98997.84
2023-03-31T15:59:56.957Z,98990.38
2023-03-31T16:02:29.172Z,98992.28
2023-03-31T16:05:01.534Z,98993.06
2023-03-31T16:07:33.132Z,98992.78
2023-03-31T16:10:05.015Z,98994.97
2023-03-31T16:12:36.508Z,98989.91
2023-03-31T16:15:08.043Z,98990.13
2023-03-31T16:17:39.561Z,98983.75
2023-03-31T16:20:11.450Z,98989.09
2023-03-31T16:22:42.925Z,98988.03
2023-03-31T16:25:14.420Z,98980.56
2023-03-31T16:27:45.887Z,98982.97
2023-03-31T16:30:17.541Z,98987.72
2023-03-31T16:32:49.074Z,98993.84
2023-03-31T16:35:20.894Z,98984.28
2023-03-31T16:37:52.388Z,98998.69
2023-03-31T16:40:24.171Z,98996.78
2023-03-31T16:42:55.671Z,98989.56
2023-03-31T16:45:27.496Z,98997.06
2023-03-31T16:48:02.221Z,98991.72
2023-03-31T16:50:44.602Z,98993.31
2023-03-31T16:53:16.104Z,99000.75
2023-03-31T16:55:47.761Z,98995.44
2023-03-31T16:58:19.240Z,98997.78
2023-03-31T17:00:51.342Z,98997.47
2023-03-31T17:03:22.998Z,99002.25
2023-03-31T17:05:55.176Z,99002.56
2023-03-31T17:08:28.375Z,99011.81
2023-03-31T17:10:59.904Z,99006.53
2023-03-31T17:13:31.389Z,99005.97
2023-03-31T17:16:16.464Z,98999.00
2023-03-31T17:18:50.489Z,99002.22
2023-03-31T17:21:22.331Z,99000.56
2023-03-31T17:23:53.788Z,99001.63
2023-03-31T17:26:25.616Z,98885.13
2023-03-31T17:28:57.080Z,99004.53
2023-03-31T17:31:28.918Z,99002.38
2023-03-31T17:34:00.464Z,99005.84
2023-03-31T17:36:32.258Z,99008.44
2023-03-31T17:39:03.756Z,98906.88
2023-03-31T17:41:35.604Z,99004.13
2023-03-31T17:44:07.068Z,99003.59
2023-03-31T17:46:38.859Z,98991.81
2023-03-31T17:49:10.358Z,98996.88
2023-03-31T17:51:41.850Z,98999.25
2023-03-31T17:54:13.392Z,99000.88
2023-03-31T17:56:45.234Z,98997.09
2023-03-31T17:59:16.716Z,99005.63
2023-03-31T18:01:48.229Z,99002.69
2023-03-31T18:04:19.809Z,99005.91
2023-03-31T18:06:51.341Z,99009.41
2023-03-31T18:09:22.856Z,99015.84
2023-03-31T18:11:54.380Z,99003.06
2023-03-31T18:14:25.853Z,99003.06
2023-03-31T18:16:57.356Z,99006.00
2023-03-31T18:19:28.828Z,99001.22
2023-03-31T18:22:00.337Z,99001.22
2023-03-31T18:24:31.829Z,99006.03
2023-03-31T18:27:03.796Z,98996.16
2023-03-31T18:29:35.316Z,99007.88
2023-03-31T18:32:07.013Z,99003.38
2023-03-31T18:34:38.598Z,99005.47
2023-03-31T18:37:10.477Z,98997.44
2023-03-31T18:39:41.998Z,99007.78
2023-03-31T18:42:13.528Z,99014.47
2023-03-31T18:44:44.996Z,99013.38
2023-03-31T18:47:16.511Z,98891.25
2023-03-31T18:49:47.973Z,99008.84
2023-03-31T18:52:19.825Z,99011.31
2023-03-31T18:54:51.400Z,99011.31
2023-03-31T18:57:23.370Z,99015.53
2023-03-31T18:59:54.844Z,99016.63
2023-03-31T19:02:26.710Z,99021.91
2023-03-31T19:04:58.252Z,99016.03
2023-03-31T19:07:29.768Z,99018.72
2023-03-31T19:10:01.312Z,99018.16
2023-03-31T19:12:33.036Z,99019.75
2023-03-31T19:15:04.530Z,99021.84
2023-03-31T19:17:36.325Z,99027.69
2023-03-31T19:20:07.858Z,99029.53
2023-03-31T19:22:39.723Z,99033.81
2023-03-31T19:25:11.187Z,99029.56
2023-03-31T19:27:43.012Z,99034.88
2023-03-31T19:30:15.716Z,99038.59
2023-03-31T19:32:47.568Z,99037.78
2023-03-31T19:35:19.077Z,99038.84
2023-03-31T19:37:50.930Z,99039.66
2023-03-31T19:40:22.413Z,99030.84
2023-03-31T19:42:54.091Z,99034.28
2023-03-31T19:45:25.562Z,99036.13
2023-03-31T19:47:57.151Z,99031.09
2023-03-31T19:50:28.693Z,99030.28
2023-03-31T19:53:00.218Z,99028.97
2023-03-31T19:55:31.752Z,99029.78
2023-03-31T19:58:03.259Z,99035.09
2023-03-31T20:00:34.734Z,99028.38
2023-03-31T20:03:06.805Z,99030.53
2023-03-31T20:05:38.527Z,99036.91
2023-03-31T20:08:10.104Z,99040.94
2023-03-31T20:10:41.629Z,99033.75
2023-03-31T20:13:13.429Z,99033.19
2023-03-31T20:15:44.943Z,99032.66
2023-03-31T20:18:16.915Z,99036.34
2023-03-31T20:20:48.390Z,99033.34
2023-03-31T20:23:20.219Z,99030.41
2023-03-31T20:25:51.719Z,99031.97
2023-03-31T20:28:23.530Z,99034.09
2023-03-31T20:30:54.978Z,99037.50
2023-03-31T20:33:26.764Z,99036.97
2023-03-31T20:35:58.238Z,99035.09
2023-03-31T20:38:30.067Z,99036.66
2023-03-31T20:41:01.544Z,99029.22
2023-03-31T20:43:33.393Z,99038.25
2023-03-31T20:46:04.962Z,99028.69
2023-03-31T20:48:36.850Z,99036.13
2023-03-31T20:51:08.315Z,99028.63
2023-03-31T20:53:40.180Z,99027.53
2023-03-31T20:56:11.796Z,99026.19
2023-03-31T20:58:44.318Z,99028.84
2023-03-31T21:01:16.010Z,99037.56
2023-03-31T21:03:47.999Z,99027.72
2023-03-31T21:06:19.546Z,99035.63
2023-03-31T21:08:51.212Z,99029.44
2023-03-31T21:11:22.727Z,99033.47
2023-03-31T21:13:54.275Z,99041.97
2023-03-31T21:16:25.804Z,99039.81
2023-03-31T21:18:57.413Z,99046.50
2023-03-31T21:21:28.906Z,99043.78
2023-03-31T21:24:00.407Z,99044.28
2023-03-31T21:26:31.929Z,99051.53
2023-03-31T21:29:03.780Z,99050.13
2023-03-31T21:31:35.273Z,99049.88
2023-03-31T21:34:06.974Z,99043.50
2023-03-31T21:36:38.772Z,99049.13
2023-03-31T21:39:10.245Z,99051.72
2023-03-31T21:41:42.079Z,99051.22
2023-03-31T21:44:13.568Z,99053.31
2023-03-31T21:46:45.427Z,99054.13
2023-03-31T21:49:17.474Z,99056.53
2023-03-31T21:51:50.278Z,99062.84
2023-03-31T21:54:21.753Z,99056.53
2023-03-31T21:56:53.407Z,99057.59
2023-03-31T21:59:24.891Z,99053.31
2023-03-31T22:01:56.440Z,99053.88
2023-03-31T22:04:29.487Z,99056.53
2023-03-31T22:07:02.144Z,99052.78
2023-03-31T22:09:33.656Z,99058.34
2023-03-31T22:12:05.560Z,99062.84
2023-03-31T22:14:37.026Z,99057.00
2023-03-31T22:17:08.497Z,99053.81
2023-03-31T22:19:39.979Z,99061.81
2023-03-31T22:22:11.830Z,99060.50
2023-03-31T22:24:43.295Z,99070.28
2023-03-31T22:27:14.758Z,99067.66
2023-03-31T22:29:46.229Z,99062.84
2023-03-31T22:32:18.071Z,99067.66
2023-03-31T22:34:49.516Z,99067.88
2023-03-31T22:37:21.002Z,99067.13
2023-03-31T22:39:52.467Z,99074.28
2023-03-31T22:42:24.160Z,99061.81
2023-03-31T22:44:55.660Z,99069.19
2023-03-31T22:47:27.535Z,99074.59
2023-03-31T22:49:59.021Z,99071.88
2023-03-31T22:52:30.887Z,99076.19
2023-03-31T22:55:02.350Z,99071.38
2023-03-31T22:57:34.221Z,99074.00
2023-03-31T23:00:05.722Z,99078.50
2023-03-31T23:02:37.542Z,99065.75
2023-03-31T23:05:09.039Z,99073.69
2023-03-31T23:07:40.892Z,99074.00
2023-03-31T23:10:12.406Z,99076.66
2023-03-31T23:12:44.200Z,99071.28
2023-03-31T23:15:15.670Z,99076.03
2023-03-31T23:17:47.540Z,99071.09
2023-03-31T23:20:19.011Z,99080.34
2023-03-31T23:22:50.821Z,99081.41
2023-03-31T23:25:22.375Z,99081.34
2023-03-31T23:27:53.990Z,99084.44
2023-03-31T23:30:25.475Z,99075.09
2023-03-31T23:32:56.978Z,99077.75
2023-03-31T23:35:28.464Z,99076.16
2023-03-31T23:38:00.015Z,99075.09
2023-03-31T23:40:31.515Z,99075.09
2023-03-31T23:43:03.215Z,99075.09
2023-03-31T23:45:34.688Z,99074.00
2023-03-31T23:48:06.527Z,99070.72
2023-03-31T23:50:38.028Z,99069.19
2023-03-31T23:53:09.864Z,99077.94
2023-03-31T23:55:41.443Z,99080.34
2023-03-31T23:58:13.397Z,99077.06
